Time;durP1;ratioP1;P1;durP2;ratioP2;P2;SDS_P1;SDS_P2;PMS_P1;PMS_P2;Temp;Humidity;BMP_temperature;BMP_pressure;BME280_temperature;BME280_humidity;BME280_pressure;Samples;Min_cycle;Max_cycle;Signal;HPM_P1;HPM_P2
2022/04/06 00:00:11;;;;;;;8.98;6.88;;;6.50;95.10;;;;;;5089888;28;20069;-86
2022/04/06 00:02:40;;;;;;;7.22;6.30;;;6.50;95.30;;;;;;5073025;28;20025;-86
2022/04/06 00:05:10;;;;;;;7.87;6.70;;;6.60;95.60;;;;;;5073078;28;20032;-86
2022/04/06 00:07:37;;;;;;;9.32;7.05;;;6.60;95.60;;;;;;5073159;28;20017;-87
2022/04/06 00:10:05;;;;;;;7.88;6.45;;;6.60;95.70;;;;;;5073005;28;20039;-87
2022/04/06 00:12:30;;;;;;;8.25;6.97;;;6.70;95.80;;;;;;5072944;28;20063;-86
2022/04/06 00:14:56;;;;;;;8.27;6.82;;;6.70;95.90;;;;;;5072637;28;20029;-86
2022/04/06 00:17:22;;;;;;;8.68;6.82;;;6.80;96.10;;;;;;5072851;28;20017;-86
2022/04/06 00:19:47;;;;;;;8.65;6.72;;;6.70;96.10;;;;;;5074132;28;20050;-87
2022/04/06 00:22:13;;;;;;;9.73;7.40;;;6.70;96.20;;;;;;5089498;28;20414;-86
2022/04/06 00:24:38;;;;;;;8.57;6.82;;;6.70;96.40;;;;;;5072791;28;20135;-86
2022/04/06 00:27:04;;;;;;;8.75;6.70;;;6.70;96.40;;;;;;5072918;28;20067;-86
2022/04/06 00:29:30;;;;;;;10.48;7.28;;;6.70;96.70;;;;;;5073655;28;20059;-86
2022/04/06 00:31:56;;;;;;;11.07;7.53;;;6.60;96.80;;;;;;5074159;28;20103;-87
2022/04/06 00:35:28;;;;;;;9.57;7.50;;;6.60;97.00;;;;;;5076666;28;20028;-86
2022/04/06 00:37:07;;;;;;;10.35;8.05;;;6.50;97.20;;;;;;5077609;28;20036;-86
2022/04/06 00:39:33;;;;;;;9.48;6.97;;;6.50;97.60;;;;;;5076611;28;20375;-87
2022/04/06 00:41:58;;;;;;;11.50;8.27;;;6.40;97.90;;;;;;5077733;28;20036;-86
2022/04/06 00:44:24;;;;;;;11.32;8.30;;;6.40;97.80;;;;;;5093448;28;20016;-87
2022/04/06 00:46:49;;;;;;;13.45;8.98;;;6.40;98.00;;;;;;5077613;28;20028;-86
2022/04/06 00:49:15;;;;;;;11.77;8.50;;;6.40;98.30;;;;;;5076306;28;20086;-86
2022/04/06 00:51:44;;;;;;;10.68;7.60;;;6.40;98.40;;;;;;5076428;28;20039;-86
2022/04/06 00:54:15;;;;;;;10.73;7.53;;;6.40;98.60;;;;;;5076056;28;20109;-86
2022/04/06 00:56:42;;;;;;;8.85;7.22;;;6.40;98.60;;;;;;5093148;28;20078;-86
2022/04/06 00:59:09;;;;;;;8.82;7.47;;;6.50;98.80;;;;;;5076349;28;20115;-87
2022/04/06 01:01:35;;;;;;;8.57;7.22;;;6.50;98.80;;;;;;5076083;28;20024;-87
2022/04/06 01:04:01;;;;;;;10.48;7.72;;;6.40;98.80;;;;;;5075875;28;20021;-86
2022/04/06 01:06:26;;;;;;;9.13;7.47;;;6.40;99.10;;;;;;5077126;28;20467;-86
2022/04/06 01:08:52;;;;;;;10.25;7.70;;;6.40;99.30;;;;;;5077160;28;20028;-87
2022/04/06 01:11:19;;;;;;;10.52;8.00;;;6.40;99.30;;;;;;5077436;28;20429;-87
2022/04/06 01:13:45;;;;;;;12.85;9.00;;;6.40;99.30;;;;;;5077049;28;20029;-86
2022/04/06 01:16:11;;;;;;;12.73;8.63;;;6.30;99.40;;;;;;5076212;28;20078;-87
2022/04/06 01:18:36;;;;;;;13.00;9.38;;;6.20;99.60;;;;;;5075804;28;20025;-87
2022/04/06 01:21:03;;;;;;;11.07;8.77;;;6.30;99.90;;;;;;5075807;28;20111;-87
2022/04/06 01:23:30;;;;;;;11.15;7.75;;;6.30;99.70;;;;;;5075698;28;20032;-87
2022/04/06 01:25:55;;;;;;;9.38;7.53;;;6.20;99.90;;;;;;5075950;28;20046;-87
2022/04/06 01:28:21;;;;;;;8.27;7.40;;;6.10;99.90;;;;;;5075656;28;20025;-86
2022/04/06 01:30:47;;;;;;;9.00;7.32;;;6.10;99.90;;;;;;5077054;28;20031;-86
2022/04/06 01:33:13;;;;;;;9.60;7.35;;;6.00;99.90;;;;;;5076718;28;20024;-86
2022/04/06 01:35:41;;;;;;;7.53;6.68;;;6.00;99.90;;;;;;5075394;28;20036;-87
2022/04/06 01:38:06;;;;;;;8.88;7.63;;;5.90;99.90;;;;;;5075656;28;20471;-86
2022/04/06 01:40:33;;;;;;;7.80;6.90;;;5.80;99.90;;;;;;5075698;28;20027;-87
2022/04/06 01:42:59;;;;;;;7.55;6.20;;;5.90;99.90;;;;;;5076608;28;20016;-87
2022/04/06 01:45:24;;;;;;;7.75;6.63;;;5.80;99.90;;;;;;5074748;28;20368;-87
2022/04/06 01:47:50;;;;;;;8.40;6.82;;;5.80;99.90;;;;;;5075219;28;20040;-87
2022/04/06 01:53:00;;;;;;;8.10;7.20;;;5.90;99.90;;;;;;5076966;28;20438;-86
2022/04/06 01:55:26;;;;;;;7.68;6.45;;;6.00;99.90;;;;;;5074954;28;20044;-87
2022/04/06 01:57:51;;;;;;;9.98;7.43;;;6.00;99.90;;;;;;5076284;28;20028;-87
2022/04/06 02:00:18;;;;;;;8.95;6.90;;;6.00;99.90;;;;;;5076204;28;20024;-86
2022/04/06 02:02:50;;;;;;;10.07;8.15;;;6.00;99.90;;;;;;5074992;28;20035;-86
2022/04/06 02:05:16;;;;;;;10.05;7.75;;;6.00;99.90;;;;;;5076445;28;20021;-86
2022/04/06 02:07:43;;;;;;;10.00;7.50;;;5.90;99.90;;;;;;5075165;28;20467;-87
2022/04/06 02:10:09;;;;;;;8.23;6.45;;;5.90;99.90;;;;;;5074997;28;20016;-87
2022/04/06 02:12:35;;;;;;;9.07;7.10;;;5.70;99.90;;;;;;5074956;28;20024;-86
2022/04/06 02:15:01;;;;;;;9.13;7.57;;;5.70;99.90;;;;;;5091542;28;20028;-86
2022/04/06 02:17:28;;;;;;;9.55;7.10;;;5.70;99.90;;;;;;5074682;28;20050;-86
2022/04/06 02:19:54;;;;;;;8.73;7.35;;;5.60;99.90;;;;;;5074692;28;20025;-87
2022/04/06 02:22:20;;;;;;;9.27;7.63;;;5.50;99.90;;;;;;5074661;28;20028;-86
2022/04/06 02:24:46;;;;;;;9.80;8.10;;;5.50;99.90;;;;;;5074677;28;20021;-87
2022/04/06 02:27:12;;;;;;;9.48;7.60;;;5.40;99.90;;;;;;5074531;28;20054;-86
2022/04/06 02:29:39;;;;;;;10.82;7.75;;;5.30;99.90;;;;;;5074609;28;20032;-86
2022/04/06 02:32:05;;;;;;;10.80;8.10;;;5.30;99.90;;;;;;5075997;28;20032;-87
2022/04/06 02:34:32;;;;;;;11.38;7.32;;;5.20;99.90;;;;;;5074397;28;20039;-86
2022/04/06 02:36:58;;;;;;;12.10;7.65;;;5.10;99.90;;;;;;5091190;28;20051;-87
2022/04/06 02:39:24;;;;;;;9.55;7.55;;;5.10;99.90;;;;;;5074433;28;20021;-86
2022/04/06 02:41:50;;;;;;;11.35;7.90;;;5.00;99.90;;;;;;5075504;28;20517;-87
2022/04/06 02:44:15;;;;;;;9.77;7.38;;;5.00;99.90;;;;;;5074187;28;20028;-86
2022/04/06 02:46:45;;;;;;;10.80;8.07;;;5.00;99.90;;;;;;5075332;28;20035;-87
2022/04/06 02:49:11;;;;;;;10.68;7.72;;;4.90;99.90;;;;;;5075321;28;20065;-87
2022/04/06 02:51:37;;;;;;;9.60;7.63;;;4.80;99.90;;;;;;5075207;28;20033;-87
2022/04/06 02:54:03;;;;;;;10.70;7.22;;;4.80;99.90;;;;;;5073997;28;20036;-87
2022/04/06 02:56:28;;;;;;;10.20;6.82;;;4.70;99.90;;;;;;5072633;28;20059;-87
2022/04/06 02:58:54;;;;;;;11.05;7.80;;;4.60;99.90;;;;;;5075005;28;20033;-86
2022/04/06 03:01:20;;;;;;;12.60;8.45;;;4.50;99.90;;;;;;5090870;28;20020;-87
2022/04/06 03:03:46;;;;;;;12.60;8.10;;;4.50;99.90;;;;;;5090819;28;20029;-86
2022/04/06 03:06:12;;;;;;;12.32;8.00;;;4.40;99.90;;;;;;5073908;28;20031;-87
2022/04/06 03:08:37;;;;;;;11.27;8.27;;;4.40;99.90;;;;;;5075257;28;20024;-87
2022/04/06 03:11:03;;;;;;;9.40;7.90;;;4.30;99.90;;;;;;5090748;28;20028;-86
2022/04/06 03:13:29;;;;;;;9.85;8.10;;;4.30;99.90;;;;;;5073677;28;20024;-86
2022/04/06 03:15:55;;;;;;;10.43;7.88;;;4.30;99.90;;;;;;5074667;28;20091;-87
2022/04/06 03:18:21;;;;;;;10.52;7.10;;;4.20;99.90;;;;;;5073659;28;20017;-86
2022/04/06 03:20:47;;;;;;;11.38;8.23;;;4.10;99.90;;;;;;5074929;28;20021;-87
2022/04/06 03:23:15;;;;;;;11.30;8.43;;;4.10;99.90;;;;;;5074745;28;20012;-87
2022/04/06 03:25:41;;;;;;;10.68;8.05;;;4.00;99.90;;;;;;5073339;28;20025;-86
2022/04/06 03:28:06;;;;;;;9.50;7.85;;;4.00;99.90;;;;;;5073270;28;20119;-87
2022/04/06 03:30:32;;;;;;;13.18;8.65;;;3.90;99.90;;;;;;5074550;28;20494;-86
2022/04/06 03:32:57;;;;;;;12.00;9.27;;;3.90;99.90;;;;;;5073324;28;20497;-87
2022/04/06 03:35:23;;;;;;;10.60;8.00;;;3.90;99.90;;;;;;5073421;28;20033;-86
2022/04/06 03:37:51;;;;;;;10.23;8.35;;;3.80;99.90;;;;;;5073294;28;20027;-87
2022/04/06 03:40:16;;;;;;;9.18;7.55;;;3.80;99.90;;;;;;5074171;28;20128;-86
2022/04/06 03:42:42;;;;;;;10.10;8.02;;;3.70;99.90;;;;;;5074421;28;20486;-87
2022/04/06 03:45:08;;;;;;;12.90;8.55;;;3.70;99.90;;;;;;5074369;28;20016;-86
2022/04/06 03:47:35;;;;;;;12.95;9.25;;;3.80;99.90;;;;;;5073136;28;20048;-86
2022/04/06 03:50:02;;;;;;;11.82;8.60;;;3.80;99.90;;;;;;5073110;28;20025;-86
2022/04/06 03:52:28;;;;;;;13.27;9.27;;;3.80;99.90;;;;;;5074199;28;20025;-86
2022/04/06 03:54:54;;;;;;;11.93;8.98;;;3.80;99.90;;;;;;5072977;28;20562;-86
2022/04/06 03:57:20;;;;;;;13.45;8.95;;;3.70;99.90;;;;;;5073031;28;20387;-86
2022/04/06 03:59:46;;;;;;;13.23;8.95;;;3.70;99.90;;;;;;5072890;28;20025;-86
2022/04/06 04:02:11;;;;;;;12.98;9.00;;;3.70;99.90;;;;;;5073018;28;20036;-86
2022/04/06 04:04:37;;;;;;;12.02;9.05;;;3.80;99.90;;;;;;5073057;28;20450;-86
2022/04/06 04:07:03;;;;;;;14.20;10.27;;;3.80;99.90;;;;;;5072913;28;20028;-86
2022/04/06 04:09:29;;;;;;;13.60;9.95;;;4.00;99.90;;;;;;5074130;28;20074;-86
2022/04/06 04:11:56;;;;;;;12.80;9.75;;;4.00;99.90;;;;;;5074131;28;20032;-86
2022/04/06 04:14:22;;;;;;;12.73;9.52;;;4.10;99.90;;;;;;5073006;28;20119;-86
2022/04/06 04:16:48;;;;;;;14.05;10.13;;;4.20;99.90;;;;;;5072705;28;20024;-86
2022/04/06 04:19:15;;;;;;;12.85;9.00;;;4.20;99.90;;;;;;5072661;28;20033;-86
2022/04/06 04:21:41;;;;;;;13.05;9.07;;;4.30;99.90;;;;;;5074022;28;20103;-86
2022/04/06 04:24:10;;;;;;;12.88;9.38;;;4.40;99.90;;;;;;5089707;28;20111;-86
2022/04/06 04:26:38;;;;;;;15.32;9.77;;;4.40;99.90;;;;;;5072937;28;20459;-86
2022/04/06 04:29:05;;;;;;;11.15;8.43;;;4.50;99.90;;;;;;5072792;28;20028;-87
2022/04/06 04:31:30;;;;;;;11.95;8.77;;;4.60;99.90;;;;;;5072853;28;20021;-87
2022/04/06 04:33:57;;;;;;;15.20;10.38;;;4.60;99.90;;;;;;5074032;28;20024;-87
2022/04/06 04:36:23;;;;;;;16.17;10.95;;;4.70;99.90;;;;;;5073931;28;20399;-87
2022/04/06 04:38:49;;;;;;;12.70;10.00;;;4.70;99.90;;;;;;5073014;28;20035;-87
2022/04/06 04:41:14;;;;;;;12.52;8.95;;;4.80;99.90;;;;;;5072779;28;20027;-87
2022/04/06 04:43:40;;;;;;;11.73;9.48;;;4.80;99.90;;;;;;5072738;28;20024;-87
2022/04/06 04:46:07;;;;;;;12.43;9.25;;;5.00;99.90;;;;;;5089472;28;20132;-87
2022/04/06 04:48:33;;;;;;;11.50;8.73;;;5.10;99.90;;;;;;5089487;28;20103;-87
2022/04/06 04:50:59;;;;;;;14.23;9.90;;;5.20;99.90;;;;;;5073661;28;20020;-87
2022/04/06 04:53:25;;;;;;;11.85;8.52;;;5.30;99.90;;;;;;5074261;28;20070;-87
2022/04/06 04:55:51;;;;;;;13.52;9.57;;;5.40;99.90;;;;;;5072488;28;20523;-87
2022/04/06 04:58:17;;;;;;;13.98;8.93;;;5.50;99.90;;;;;;5072655;28;20395;-87
2022/04/06 05:00:42;;;;;;;15.02;9.50;;;5.60;99.90;;;;;;5073722;28;20028;-87
2022/04/06 05:03:08;;;;;;;14.98;9.35;;;5.70;99.90;;;;;;5072834;28;20054;-87
2022/04/06 05:05:35;;;;;;;12.80;9.02;;;5.90;99.90;;;;;;5072515;28;20383;-87
2022/04/06 05:08:01;;;;;;;9.88;7.88;;;5.90;99.90;;;;;;5072542;28;20025;-87
2022/04/06 05:10:26;;;;;;;17.63;10.27;;;6.00;99.90;;;;;;5072568;28;20031;-87
2022/04/06 05:12:52;;;;;;;13.60;9.27;;;6.20;99.90;;;;;;5072600;28;20020;-87
2022/04/06 05:15:19;;;;;;;12.38;8.93;;;6.20;99.90;;;;;;5072369;28;20066;-87
2022/04/06 05:17:45;;;;;;;12.02;8.77;;;6.30;99.90;;;;;;5073688;28;20029;-87
2022/04/06 05:20:12;;;;;;;11.07;8.73;;;6.40;99.90;;;;;;5074650;28;20370;-87
2022/04/06 05:22:38;;;;;;;12.10;8.90;;;6.40;99.90;;;;;;5076002;28;20021;-87
2022/04/06 05:25:07;;;;;;;11.10;8.38;;;6.50;99.90;;;;;;5076031;28;20025;-87
2022/04/06 05:27:53;;;;;;;11.68;8.77;;;6.60;99.90;;;;;;5075740;28;20447;-87
2022/04/06 05:30:24;;;;;;;12.25;8.15;;;6.80;99.90;;;;;;5092264;28;20029;-87
2022/04/06 05:32:52;;;;;;;10.18;7.80;;;6.80;99.90;;;;;;5076773;28;20025;-87
2022/04/06 05:35:18;;;;;;;10.20;8.30;;;6.80;99.90;;;;;;5075689;28;20021;-88
2022/04/06 05:37:44;;;;;;;14.55;9.38;;;6.90;99.90;;;;;;5075766;28;20467;-87
2022/04/06 05:40:12;;;;;;;9.65;7.97;;;6.90;99.90;;;;;;5092518;28;20021;-87
2022/04/06 05:42:38;;;;;;;12.25;8.68;;;7.10;99.90;;;;;;5075546;28;20025;-87
2022/04/06 05:45:06;;;;;;;12.35;8.75;;;7.20;99.90;;;;;;5075426;28;20028;-87
2022/04/06 05:47:32;;;;;;;11.55;7.82;;;7.30;99.90;;;;;;5075268;28;20487;-87
2022/04/06 05:49:58;;;;;;;9.93;8.02;;;7.40;99.90;;;;;;5075510;28;20530;-87
2022/04/06 05:52:23;;;;;;;11.52;8.77;;;7.40;99.90;;;;;;5076584;28;20155;-88
2022/04/06 05:54:51;;;;;;;11.70;8.52;;;7.50;99.90;;;;;;5092114;28;20040;-87
2022/04/06 05:57:17;;;;;;;9.98;7.45;;;7.60;99.90;;;;;;5075373;28;20029;-88
2022/04/06 05:59:43;;;;;;;10.15;7.82;;;7.60;99.90;;;;;;5075185;28;20031;-86
2022/04/06 06:02:08;;;;;;;9.60;7.72;;;7.70;99.90;;;;;;5075126;28;20107;-88
2022/04/06 06:04:34;;;;;;;11.32;8.10;;;7.80;99.90;;;;;;5075085;28;20052;-87
2022/04/06 06:07:00;;;;;;;11.57;8.13;;;8.00;99.90;;;;;;5075105;28;20020;-88
2022/04/06 06:09:27;;;;;;;12.18;8.48;;;8.10;99.90;;;;;;5076009;28;20029;-87
2022/04/06 06:11:54;;;;;;;10.10;7.70;;;8.20;99.90;;;;;;5074923;28;20021;-87
2022/04/06 06:14:20;;;;;;;9.25;7.32;;;8.30;99.80;;;;;;5075436;28;20045;-87
2022/04/06 06:16:46;;;;;;;11.82;8.45;;;8.40;99.60;;;;;;5074787;28;20047;-87
2022/04/06 06:19:11;;;;;;;9.82;7.43;;;8.50;99.00;;;;;;5074828;28;20020;-87
2022/04/06 06:21:37;;;;;;;8.75;6.82;;;8.60;98.70;;;;;;5075839;28;20036;-87
2022/04/06 06:24:05;;;;;;;10.70;7.55;;;8.70;98.50;;;;;;5074729;28;20032;-87
2022/04/06 06:26:35;;;;;;;10.85;7.80;;;8.80;98.20;;;;;;5091454;28;20028;-87
2022/04/06 06:29:01;;;;;;;10.57;7.53;;;8.90;97.50;;;;;;5075659;28;20150;-87
2022/04/06 06:31:30;;;;;;;9.35;7.10;;;9.10;96.20;;;;;;5074508;28;20301;-88
2022/04/06 06:33:57;;;;;;;9.00;5.82;;;9.10;96.40;;;;;;5074354;28;20024;-88
2022/04/06 06:36:25;;;;;;;7.28;6.07;;;9.20;95.30;;;;;;5075728;28;20029;-88
2022/04/06 06:38:52;;;;;;;8.05;6.15;;;9.30;94.90;;;;;;5074524;28;20361;-88
2022/04/06 06:41:18;;;;;;;8.85;6.10;;;9.40;94.80;;;;;;5074290;28;20016;-86
2022/04/06 06:43:45;;;;;;;8.27;6.75;;;9.50;94.20;;;;;;5074339;28;20044;-88
2022/04/06 06:46:11;;;;;;;13.65;6.50;;;9.50;94.10;;;;;;5090982;28;20034;-89
2022/04/06 06:48:37;;;;;;;6.20;5.47;;;9.60;94.00;;;;;;5074201;28;20123;-88
2022/04/06 06:51:03;;;;;;;8.60;6.05;;;9.70;94.10;;;;;;5075403;28;20024;-88
2022/04/06 06:53:29;;;;;;;8.10;5.88;;;9.80;93.80;;;;;;5074356;28;20032;-89
2022/04/06 06:55:54;;;;;;;9.93;6.13;;;9.80;93.70;;;;;;5074975;28;20046;-89
2022/04/06 06:58:20;;;;;;;8.75;6.47;;;9.90;93.80;;;;;;5074074;28;20048;-88
2022/04/06 07:00:46;;;;;;;8.55;6.18;;;10.00;93.10;;;;;;5073911;28;20456;-89
2022/04/06 07:03:11;;;;;;;8.77;6.50;;;10.10;93.10;;;;;;5075209;28;20025;-88
2022/04/06 07:05:37;;;;;;;7.80;6.47;;;10.40;91.50;;;;;;5073823;28;20054;-88
2022/04/06 07:08:02;;;;;;;8.27;6.18;;;10.60;91.00;;;;;;5075155;28;20379;-89
2022/04/06 07:10:31;;;;;;;6.80;5.57;;;10.80;90.40;;;;;;5090824;28;20024;-87
2022/04/06 07:12:56;;;;;;;8.23;5.38;;;11.00;90.10;;;;;;5090696;28;20122;-88
2022/04/06 07:15:23;;;;;;;7.35;5.50;;;11.20;90.40;;;;;;5073632;28;20027;-90
2022/04/06 07:17:58;;;;;;;6.90;5.45;;;11.50;88.40;;;;;;5073802;28;20096;-89
2022/04/06 07:20:29;;;;;;;7.10;5.45;;;11.70;87.20;;;;;;5073716;28;20383;-89
2022/04/06 07:22:54;;;;;;;;;;;11.90;85.10;;;;;;5073920;28;20020;-88
2022/04/06 07:25:20;;;;;;;6.95;5.30;;;12.00;82.40;;;;;;5073399;28;20329;-89
2022/04/06 07:27:46;;;;;;;6.93;4.90;;;11.90;81.60;;;;;;5090354;28;20029;-89
2022/04/06 07:30:13;;;;;;;5.75;5.03;;;11.80;82.70;;;;;;5073525;28;20115;-87
2022/04/06 07:32:38;;;;;;;4.75;4.28;;;11.90;82.50;;;;;;5073576;28;20024;-88
2022/04/06 07:35:06;;;;;;;5.80;4.90;;;11.90;80.90;;;;;;5090463;28;20551;-89
2022/04/06 07:37:43;;;;;;;7.38;4.57;;;12.00;80.50;;;;;;5073512;28;20120;-89
2022/04/06 07:40:11;;;;;;;5.30;4.78;;;12.10;80.00;;;;;;5074705;28;20017;-88
2022/04/06 07:42:38;;;;;;;8.13;5.60;;;12.10;81.80;;;;;;5074100;28;20028;-89
2022/04/06 07:45:09;;;;;;;9.52;5.82;;;12.40;79.20;;;;;;5074735;28;20046;-89
2022/04/06 07:47:36;;;;;;;8.60;4.78;;;12.50;79.00;;;;;;5072854;28;20024;-87
2022/04/06 07:50:03;;;;;;;7.55;5.10;;;12.60;77.20;;;;;;5073305;28;20024;-87
2022/04/06 07:52:29;;;;;;;8.45;5.20;;;12.70;76.60;;;;;;5073177;28;20013;-88
2022/04/06 07:54:54;;;;;;;8.20;4.75;;;12.50;75.90;;;;;;5074089;28;20074;-89
2022/04/06 07:57:22;;;;;;;7.38;4.85;;;12.20;77.10;;;;;;5073364;28;20020;-88
2022/04/06 07:59:48;;;;;;;5.63;4.35;;;11.90;79.40;;;;;;5073202;28;20021;-87
2022/04/06 08:02:14;;;;;;;6.20;5.03;;;11.90;79.30;;;;;;5074683;28;20085;-87
2022/04/06 08:04:40;;;;;;;7.72;5.22;;;12.00;78.90;;;;;;5074182;28;20033;-87
2022/04/06 08:07:05;;;;;;;5.13;4.60;;;12.20;77.90;;;;;;5073014;28;20170;-88
2022/04/06 08:09:31;;;;;;;5.68;4.60;;;12.30;77.20;;;;;;5073287;28;20115;-89
2022/04/06 08:11:56;;;;;;;5.22;4.30;;;12.20;78.70;;;;;;5073217;28;20025;-89
2022/04/06 08:14:22;;;;;;;6.57;4.90;;;12.30;80.30;;;;;;5073096;28;20107;-88
2022/04/06 08:16:47;;;;;;;6.95;4.95;;;12.50;78.70;;;;;;5072981;28;20025;-89
2022/04/06 08:19:13;;;;;;;5.75;4.68;;;12.70;78.30;;;;;;5074103;28;20109;-88
2022/04/06 08:21:40;;;;;;;5.13;4.60;;;13.00;76.90;;;;;;5072916;28;20055;-89
2022/04/06 08:24:06;;;;;;;6.18;4.40;;;13.20;76.20;;;;;;5073491;28;20104;-90
2022/04/06 08:26:31;;;;;;;4.68;3.70;;;13.30;74.30;;;;;;5072848;28;20028;-90
2022/04/06 08:28:57;;;;;;;4.60;4.10;;;13.30;74.30;;;;;;5072845;28;20379;-89
2022/04/06 08:31:23;;;;;;;4.60;3.83;;;13.40;72.50;;;;;;5072915;28;20056;-90
2022/04/06 08:33:49;;;;;;;5.22;4.32;;;13.40;72.70;;;;;;5089776;28;20082;-88
2022/04/06 08:36:16;;;;;;;6.88;4.30;;;13.50;71.70;;;;;;5074067;28;20021;-89
2022/04/06 08:38:42;;;;;;;5.28;3.72;;;13.50;71.80;;;;;;5072839;28;20029;-89
2022/04/06 08:41:08;;;;;;;4.68;4.07;;;13.60;70.50;;;;;;5072725;28;20017;-89
2022/04/06 08:43:34;;;;;;;6.93;3.80;;;13.70;71.40;;;;;;5072663;28;20115;-88
2022/04/06 08:46:00;;;;;;;3.95;3.50;;;13.80;70.40;;;;;;5072858;28;20067;-90
2022/04/06 08:48:29;;;;;;;4.68;4.00;;;13.90;70.40;;;;;;5072812;28;20107;-89
2022/04/06 08:50:58;;;;;;;4.97;4.40;;;14.10;69.80;;;;;;5072905;28;20035;-87
2022/04/06 08:53:24;;;;;;;4.55;3.90;;;14.40;68.70;;;;;;5073644;28;20264;-87
2022/04/06 08:55:49;;;;;;;6.38;5.20;;;14.60;67.30;;;;;;5075571;28;20040;-89
2022/04/06 08:58:15;;;;;;;5.43;4.15;;;14.60;67.90;;;;;;5093202;28;20554;-87
2022/04/06 09:00:41;;;;;;;11.18;6.32;;;14.70;66.60;;;;;;5077427;28;20107;-87
2022/04/06 09:03:07;;;;;;;11.88;7.57;;;14.70;67.80;;;;;;5076185;28;20051;-87
2022/04/06 09:05:34;;;;;;;7.65;6.28;;;14.70;66.40;;;;;;5092934;28;20017;-87
2022/04/06 09:08:02;;;;;;;13.88;10.23;;;14.60;66.90;;;;;;5077266;28;20012;-87
2022/04/06 09:10:40;;;;;;;19.08;13.15;;;14.50;68.10;;;;;;5076065;28;20021;-87
2022/04/06 09:13:13;;;;;;;10.18;6.57;;;14.70;67.60;;;;;;5076050;28;20091;-89
2022/04/06 09:15:39;;;;;;;27.83;14.02;;;15.00;65.70;;;;;;5075961;28;20025;-88
2022/04/06 09:18:05;;;;;;;31.40;15.32;;;15.10;65.60;;;;;;5076155;28;20020;-88
2022/04/06 09:20:31;;;;;;;42.03;20.55;;;15.20;65.40;;;;;;5076084;28;20048;-88
2022/04/06 09:23:04;;;;;;;12.52;10.27;;;15.30;65.40;;;;;;5075918;28;20078;-87
2022/04/06 09:25:35;;;;;;;6.57;5.85;;;15.50;65.50;;;;;;5075691;28;20054;-89
2022/04/06 09:28:09;;;;;;;7.93;6.30;;;15.80;65.00;;;;;;5075878;28;20036;-87
2022/04/06 09:30:38;;;;;;;7.03;5.18;;;16.00;63.70;;;;;;5075715;28;20017;-87
2022/04/06 09:33:04;;;;;;;5.03;4.13;;;16.20;63.50;;;;;;5076793;28;20048;-88
2022/04/06 09:35:32;;;;;;;4.40;3.63;;;16.30;64.00;;;;;;5075507;28;20059;-88
2022/04/06 09:38:22;;;;;;;4.53;3.63;;;16.40;63.30;;;;;;5075677;28;20055;-88
2022/04/06 09:40:51;;;;;;;4.90;3.83;;;16.50;63.00;;;;;;5092451;28;20039;-87
2022/04/06 16:11:48;;;;;;;23.30;16.20;;;15.50;56.00;;;;;;5111875;27;20426;-84
2022/04/06 16:14:13;;;;;;;29.50;21.92;;;15.20;57.50;;;;;;5110842;28;20023;-86
2022/04/06 16:16:40;;;;;;;86.53;50.05;;;15.10;58.60;;;;;;5110603;28;20535;-86
2022/04/06 16:19:06;;;;;;;45.47;30.65;;;15.00;59.30;;;;;;5110930;28;20397;-87
2022/04/06 16:21:32;;;;;;;27.75;16.40;;;14.90;60.10;;;;;;5110642;28;20118;-88
2022/04/06 16:23:57;;;;;;;20.35;12.25;;;14.90;60.70;;;;;;5110804;28;20062;-88
2022/04/06 16:26:23;;;;;;;19.40;12.05;;;14.80;61.10;;;;;;5111345;28;20069;-88
2022/04/06 16:28:49;;;;;;;15.23;10.15;;;14.80;61.50;;;;;;5110791;28;20028;-86
2022/04/06 16:31:15;;;;;;;21.50;12.93;;;14.80;61.90;;;;;;5111336;28;20035;-85
2022/04/06 16:33:41;;;;;;;33.50;26.58;;;14.70;62.00;;;;;;5110607;28;20016;-85
2022/04/06 16:36:09;;;;;;;24.13;16.05;;;14.70;62.20;;;;;;5111447;28;20172;-84
2022/04/06 16:38:35;;;;;;;15.13;11.57;;;14.70;62.90;;;;;;5111571;28;20012;-87
2022/04/06 16:41:01;;;;;;;14.38;8.77;;;14.60;62.70;;;;;;5110653;28;20057;-87
2022/04/06 16:43:26;;;;;;;11.55;7.85;;;14.60;62.60;;;;;;5109698;28;20027;-84
2022/04/06 16:45:52;;;;;;;12.82;8.10;;;14.50;62.90;;;;;;5110848;28;20020;-84
2022/04/06 16:48:18;;;;;;;12.25;7.65;;;14.50;62.90;;;;;;5109490;28;20114;-84
2022/04/06 16:53:27;;;;;;;14.30;7.35;;;14.30;63.30;;;;;;5110997;28;20026;-84
2022/04/06 16:55:54;;;;;;;10.77;6.88;;;14.20;63.80;;;;;;5109450;28;20028;-84
2022/04/06 16:58:19;;;;;;;12.48;6.88;;;14.10;64.10;;;;;;5109267;28;20115;-84
2022/04/06 17:00:45;;;;;;;18.42;8.40;;;13.90;63.90;;;;;;5109423;28;20106;-84
2022/04/06 17:03:12;;;;;;;25.23;14.98;;;13.70;63.80;;;;;;5110522;28;20475;-84
2022/04/06 17:05:40;;;;;;;18.83;11.55;;;13.70;62.50;;;;;;5109296;28;20028;-83
2022/04/06 17:08:07;;;;;;;25.08;11.20;;;13.70;62.40;;;;;;5109132;28;20398;-84
2022/04/06 17:10:33;;;;;;;13.98;9.27;;;13.60;62.40;;;;;;5108833;28;20040;-83
2022/04/06 17:12:58;;;;;;;11.98;6.90;;;13.50;62.60;;;;;;5110177;28;20182;-84
2022/04/06 17:15:27;;;;;;;11.85;6.75;;;13.50;63.40;;;;;;5110292;28;20095;-84
2022/04/06 17:17:53;;;;;;;12.93;7.20;;;13.40;63.10;;;;;;5108851;28;20069;-83
2022/04/06 17:20:19;;;;;;;13.45;6.97;;;13.30;63.40;;;;;;5108697;28;20036;-83
2022/04/06 17:22:46;;;;;;;11.48;7.03;;;13.20;63.70;;;;;;5097926;28;20052;-83
2022/04/06 17:25:13;;;;;;;11.13;7.03;;;13.00;63.90;;;;;;5095087;28;20020;-83
2022/04/06 17:27:39;;;;;;;19.92;10.57;;;12.90;64.30;;;;;;5095092;28;20383;-83
2022/04/06 17:30:06;;;;;;;25.50;11.38;;;12.80;64.60;;;;;;5096304;28;20016;-83
2022/04/06 17:32:32;;;;;;;25.35;10.85;;;12.70;65.00;;;;;;5095163;28;20113;-83
2022/04/06 17:34:58;;;;;;;160.80;53.75;;;12.60;65.60;;;;;;5095176;28;20107;-83
2022/04/06 17:37:24;;;;;;;168.10;56.30;;;12.40;66.00;;;;;;5095073;28;20024;-83
2022/04/06 17:39:50;;;;;;;122.10;49.05;;;12.20;66.30;;;;;;5094893;28;20043;-83
2022/04/06 17:42:16;;;;;;;110.68;39.60;;;12.10;66.90;;;;;;5094842;28;20032;-83
2022/04/06 17:44:41;;;;;;;89.55;33.63;;;11.90;67.10;;;;;;5094833;28;20027;-83
2022/04/06 17:47:07;;;;;;;93.32;31.75;;;11.70;67.50;;;;;;5094694;28;20486;-83
2022/04/06 17:49:33;;;;;;;86.28;29.02;;;11.60;68.00;;;;;;5095976;28;20020;-83
2022/04/06 17:51:59;;;;;;;47.70;19.48;;;11.40;68.40;;;;;;5094636;28;20024;-83
2022/04/06 17:54:25;;;;;;;64.68;24.65;;;11.30;68.70;;;;;;5094485;28;20074;-83
2022/04/06 17:56:51;;;;;;;56.97;21.75;;;11.20;69.20;;;;;;5095878;28;20024;-83
2022/04/06 17:59:17;;;;;;;59.47;22.08;;;11.00;69.60;;;;;;5094598;28;20020;-83
2022/04/06 18:01:43;;;;;;;63.83;23.80;;;10.90;70.10;;;;;;5095749;28;20054;-82
2022/04/06 18:04:09;;;;;;;62.50;24.27;;;10.80;70.50;;;;;;5094866;28;20032;-83
2022/04/06 18:06:35;;;;;;;49.13;19.38;;;10.60;71.20;;;;;;5095611;28;20378;-83
2022/04/06 18:09:08;;;;;;;51.20;20.30;;;10.50;71.20;;;;;;5088677;28;20047;-83
2022/04/06 18:14:18;;;;;;;49.95;18.90;;;10.30;72.40;;;;;;5086115;28;20598;-82
2022/04/06 18:16:43;;;;;;;47.38;19.52;;;10.20;72.90;;;;;;5082830;28;20038;-82
2022/04/06 18:19:10;;;;;;;55.47;17.52;;;10.10;73.20;;;;;;5083699;28;20021;-83
2022/04/06 18:21:36;;;;;;;37.17;16.02;;;9.90;73.80;;;;;;5084376;28;20023;-83
2022/04/06 18:24:03;;;;;;;35.70;15.25;;;9.90;74.40;;;;;;5083743;28;20467;-82
2022/04/06 18:26:29;;;;;;;29.75;13.05;;;9.80;74.80;;;;;;5085226;28;20140;-83
2022/04/06 18:28:56;;;;;;;27.30;13.75;;;9.70;75.10;;;;;;5082783;28;20381;-83
2022/04/06 18:31:22;;;;;;;28.23;13.43;;;9.60;75.60;;;;;;5084377;28;20466;-83
2022/04/06 18:33:48;;;;;;;30.92;13.70;;;9.50;76.20;;;;;;5080760;28;20081;-83
2022/04/06 18:36:14;;;;;;;22.80;12.13;;;9.50;76.60;;;;;;5084011;28;20021;-83
2022/04/06 18:38:40;;;;;;;23.77;13.07;;;9.40;77.10;;;;;;5083407;28;20026;-82
2022/04/06 18:41:12;;;;;;;24.88;12.75;;;9.30;77.30;;;;;;5083777;28;20025;-82
2022/04/06 18:43:38;;;;;;;25.90;12.90;;;9.20;77.50;;;;;;5084182;28;20107;-83
2022/04/06 18:46:04;;;;;;;34.00;13.18;;;9.20;78.10;;;;;;5083730;28;20425;-82
2022/04/06 18:48:32;;;;;;;27.92;14.15;;;9.10;78.60;;;;;;5084063;28;20016;-82
2022/04/06 18:50:59;;;;;;;26.02;12.90;;;9.00;78.90;;;;;;5084182;28;20459;-82
2022/04/06 18:53:24;;;;;;;29.55;13.43;;;9.00;79.20;;;;;;5082290;28;20024;-82
2022/04/06 18:55:50;;;;;;;29.23;12.85;;;8.90;79.70;;;;;;5085966;28;20481;-82
2022/04/06 18:58:17;;;;;;;26.13;12.85;;;8.90;80.00;;;;;;5081979;28;20019;-82
2022/04/06 19:00:43;;;;;;;23.10;12.85;;;8.80;80.20;;;;;;5081814;28;20020;-82
2022/04/06 19:03:11;;;;;;;26.13;12.10;;;8.70;81.00;;;;;;5082579;28;20020;-83
2022/04/06 19:05:38;;;;;;;21.70;10.40;;;8.70;81.40;;;;;;5083631;28;20028;-83
2022/04/06 19:08:04;;;;;;;23.17;11.70;;;8.60;81.80;;;;;;5080980;28;20017;-83
2022/04/06 19:10:30;;;;;;;19.40;10.43;;;8.60;82.60;;;;;;5083528;28;20044;-82
2022/04/06 19:13:01;;;;;;;18.60;10.55;;;8.50;83.10;;;;;;5081806;28;20035;-83
2022/04/06 19:15:28;;;;;;;19.52;10.70;;;8.50;83.60;;;;;;5082050;28;20513;-82
2022/04/06 19:17:53;;;;;;;18.90;10.68;;;8.50;85.00;;;;;;5085514;28;20031;-82